sensor_id;sensor_type;location;lat;lon;timestamp;temperature;humidity
2783;DHT22;1399;47.072;15.452;2023-04-19T00:01:51;14.60;58.00
2783;DHT22;1399;47.072;15.452;2023-04-19T00:04:17;14.60;57.80
2783;DHT22;1399;47.072;15.452;2023-04-19T00:06:44;14.60;57.50
2783;DHT22;1399;47.072;15.452;2023-04-19T00:09:12;14.60;57.30
2783;DHT22;1399;47.072;15.452;2023-04-19T00:11:39;14.60;57.10
2783;DHT22;1399;47.072;15.452;2023-04-19T00:14:05;14.60;57.00
2783;DHT22;1399;47.072;15.452;2023-04-19T00:16:31;14.60;56.90
2783;DHT22;1399;47.072;15.452;2023-04-19T00:18:56;14.60;56.90
2783;DHT22;1399;47.072;15.452;2023-04-19T00:21:22;14.60;56.90
2783;DHT22;1399;47.072;15.452;2023-04-19T00:23:48;14.60;56.80
2783;DHT22;1399;47.072;15.452;2023-04-19T00:26:14;14.60;56.70
2783;DHT22;1399;47.072;15.452;2023-04-19T00:28:42;14.60;56.60
2783;DHT22;1399;47.072;15.452;2023-04-19T00:31:08;14.50;56.40
2783;DHT22;1399;47.072;15.452;2023-04-19T00:33:33;14.60;56.50
2783;DHT22;1399;47.072;15.452;2023-04-19T00:35:59;14.50;56.30
2783;DHT22;1399;47.072;15.452;2023-04-19T00:38:25;14.60;56.30
2783;DHT22;1399;47.072;15.452;2023-04-19T00:40:51;14.60;56.30
2783;DHT22;1399;47.072;15.452;2023-04-19T00:43:17;14.60;56.20
2783;DHT22;1399;47.072;15.452;2023-04-19T00:45:44;14.60;56.10
2783;DHT22;1399;47.072;15.452;2023-04-19T00:48:12;14.50;56.00
2783;DHT22;1399;47.072;15.452;2023-04-19T00:50:38;14.50;55.90
2783;DHT22;1399;47.072;15.452;2023-04-19T00:53:04;14.50;55.80
2783;DHT22;1399;47.072;15.452;2023-04-19T00:55:31;14.50;55.70
2783;DHT22;1399;47.072;15.452;2023-04-19T00:57:57;14.60;55.80
2783;DHT22;1399;47.072;15.452;2023-04-19T01:00:24;14.60;55.70
2783;DHT22;1399;47.072;15.452;2023-04-19T01:02:49;14.60;55.60
2783;DHT22;1399;47.072;15.452;2023-04-19T01:05:15;14.50;55.50
2783;DHT22;1399;47.072;15.452;2023-04-19T01:07:42;14.50;55.40
2783;DHT22;1399;47.072;15.452;2023-04-19T01:10:08;14.50;55.40
2783;DHT22;1399;47.072;15.452;2023-04-19T01:12:34;14.50;55.20
2783;DHT22;1399;47.072;15.452;2023-04-19T01:15:01;14.50;55.00
2783;DHT22;1399;47.072;15.452;2023-04-19T01:17:27;14.50;55.00
2783;DHT22;1399;47.072;15.452;2023-04-19T01:20:02;14.50;55.00
2783;DHT22;1399;47.072;15.452;2023-04-19T01:22:28;14.50;54.90
2783;DHT22;1399;47.072;15.452;2023-04-19T01:24:55;14.50;54.90
2783;DHT22;1399;47.072;15.452;2023-04-19T01:27:21;14.50;54.90
2783;DHT22;1399;47.072;15.452;2023-04-19T01:29:48;14.50;54.80
2783;DHT22;1399;47.072;15.452;2023-04-19T01:32:14;14.50;54.80
2783;DHT22;1399;47.072;15.452;2023-04-19T01:34:40;14.50;54.50
2783;DHT22;1399;47.072;15.452;2023-04-19T01:37:07;14.50;54.50
2783;DHT22;1399;47.072;15.452;2023-04-19T01:39:33;14.50;54.50
2783;DHT22;1399;47.072;15.452;2023-04-19T01:41:58;14.50;54.40
2783;DHT22;1399;47.072;15.452;2023-04-19T01:44:25;14.50;54.30
2783;DHT22;1399;47.072;15.452;2023-04-19T01:46:51;14.50;54.20
2783;DHT22;1399;47.072;15.452;2023-04-19T01:49:17;14.40;54.10
2783;DHT22;1399;47.072;15.452;2023-04-19T01:51:44;14.40;54.00
2783;DHT22;1399;47.072;15.452;2023-04-19T01:54:10;14.40;54.00
2783;DHT22;1399;47.072;15.452;2023-04-19T01:56:36;14.40;54.00
2783;DHT22;1399;47.072;15.452;2023-04-19T01:59:02;14.40;54.00
2783;DHT22;1399;47.072;15.452;2023-04-19T02:01:28;14.40;54.00
2783;DHT22;1399;47.072;15.452;2023-04-19T02:03:55;14.40;54.00
2783;DHT22;1399;47.072;15.452;2023-04-19T02:06:20;14.40;53.90
2783;DHT22;1399;47.072;15.452;2023-04-19T02:08:46;14.40;53.90
2783;DHT22;1399;47.072;15.452;2023-04-19T02:11:13;14.40;53.90
2783;DHT22;1399;47.072;15.452;2023-04-19T02:13:39;14.40;53.90
2783;DHT22;1399;47.072;15.452;2023-04-19T02:16:06;14.40;53.80
2783;DHT22;1399;47.072;15.452;2023-04-19T02:18:33;14.40;53.90
2783;DHT22;1399;47.072;15.452;2023-04-19T02:21:09;14.40;53.90
2783;DHT22;1399;47.072;15.452;2023-04-19T02:23:35;14.40;53.80
2783;DHT22;1399;47.072;15.452;2023-04-19T02:26:01;14.40;53.70
2783;DHT22;1399;47.072;15.452;2023-04-19T02:28:31;14.40;53.60
2783;DHT22;1399;47.072;15.452;2023-04-19T02:30:57;14.40;53.60
2783;DHT22;1399;47.072;15.452;2023-04-19T02:33:26;14.30;53.60
2783;DHT22;1399;47.072;15.452;2023-04-19T02:35:53;14.30;53.60
2783;DHT22;1399;47.072;15.452;2023-04-19T02:38:19;14.30;53.60
2783;DHT22;1399;47.072;15.452;2023-04-19T02:40:44;14.30;53.50
2783;DHT22;1399;47.072;15.452;2023-04-19T02:43:10;14.30;53.60
2783;DHT22;1399;47.072;15.452;2023-04-19T02:45:36;14.30;53.60
2783;DHT22;1399;47.072;15.452;2023-04-19T02:48:02;14.30;53.80
2783;DHT22;1399;47.072;15.452;2023-04-19T02:50:27;14.30;53.90
2783;DHT22;1399;47.072;15.452;2023-04-19T02:52:53;14.20;53.90
2783;DHT22;1399;47.072;15.452;2023-04-19T02:55:19;14.20;54.00
2783;DHT22;1399;47.072;15.452;2023-04-19T02:57:45;14.20;54.20
2783;DHT22;1399;47.072;15.452;2023-04-19T03:00:11;14.20;54.20
2783;DHT22;1399;47.072;15.452;2023-04-19T03:02:37;14.20;54.30
2783;DHT22;1399;47.072;15.452;2023-04-19T03:05:04;14.10;54.40
2783;DHT22;1399;47.072;15.452;2023-04-19T03:07:31;14.10;54.60
2783;DHT22;1399;47.072;15.452;2023-04-19T03:09:56;14.10;54.80
2783;DHT22;1399;47.072;15.452;2023-04-19T03:12:22;14.10;54.90
2783;DHT22;1399;47.072;15.452;2023-04-19T03:14:48;14.10;55.00
2783;DHT22;1399;47.072;15.452;2023-04-19T03:17:13;14.10;55.10
2783;DHT22;1399;47.072;15.452;2023-04-19T03:19:39;14.10;55.10
2783;DHT22;1399;47.072;15.452;2023-04-19T03:22:05;14.00;55.10
2783;DHT22;1399;47.072;15.452;2023-04-19T03:24:31;14.00;55.10
2783;DHT22;1399;47.072;15.452;2023-04-19T03:26:57;14.00;55.20
2783;DHT22;1399;47.072;15.452;2023-04-19T03:29:23;14.00;55.30
2783;DHT22;1399;47.072;15.452;2023-04-19T03:31:48;13.90;55.30
2783;DHT22;1399;47.072;15.452;2023-04-19T03:34:14;13.90;55.50
2783;DHT22;1399;47.072;15.452;2023-04-19T03:36:40;13.90;55.60
2783;DHT22;1399;47.072;15.452;2023-04-19T03:39:06;13.90;55.60
2783;DHT22;1399;47.072;15.452;2023-04-19T03:41:32;13.90;55.70
2783;DHT22;1399;47.072;15.452;2023-04-19T03:43:58;13.90;55.80
2783;DHT22;1399;47.072;15.452;2023-04-19T03:46:24;13.80;55.70
2783;DHT22;1399;47.072;15.452;2023-04-19T03:48:50;13.80;55.80
2783;DHT22;1399;47.072;15.452;2023-04-19T03:51:17;13.80;55.90
2783;DHT22;1399;47.072;15.452;2023-04-19T03:53:43;13.80;55.90
2783;DHT22;1399;47.072;15.452;2023-04-19T03:56:09;13.80;56.00
2783;DHT22;1399;47.072;15.452;2023-04-19T03:58:34;13.70;55.90
2783;DHT22;1399;47.072;15.452;2023-04-19T04:01:02;13.70;56.00
2783;DHT22;1399;47.072;15.452;2023-04-19T04:03:28;13.70;56.00
2783;DHT22;1399;47.072;15.452;2023-04-19T04:05:53;13.70;56.10
2783;DHT22;1399;47.072;15.452;2023-04-19T04:08:19;13.60;56.00
2783;DHT22;1399;47.072;15.452;2023-04-19T04:10:45;13.60;56.10
2783;DHT22;1399;47.072;15.452;2023-04-19T04:13:11;13.60;56.10
2783;DHT22;1399;47.072;15.452;2023-04-19T04:15:37;13.60;56.20
2783;DHT22;1399;47.072;15.452;2023-04-19T04:18:03;13.60;56.20
2783;DHT22;1399;47.072;15.452;2023-04-19T04:20:29;13.60;56.20
2783;DHT22;1399;47.072;15.452;2023-04-19T04:22:55;13.60;56.20
2783;DHT22;1399;47.072;15.452;2023-04-19T04:25:20;13.50;56.20
2783;DHT22;1399;47.072;15.452;2023-04-19T04:27:49;13.50;56.20
2783;DHT22;1399;47.072;15.452;2023-04-19T04:30:14;13.50;56.20
2783;DHT22;1399;47.072;15.452;2023-04-19T04:32:40;13.50;56.20
2783;DHT22;1399;47.072;15.452;2023-04-19T04:35:07;13.50;56.20
2783;DHT22;1399;47.072;15.452;2023-04-19T04:37:34;13.50;56.10
2783;DHT22;1399;47.072;15.452;2023-04-19T04:40:01;13.50;56.10
2783;DHT22;1399;47.072;15.452;2023-04-19T04:42:29;13.50;56.10
2783;DHT22;1399;47.072;15.452;2023-04-19T04:44:56;13.50;56.00
2783;DHT22;1399;47.072;15.452;2023-04-19T04:47:22;13.50;56.00
2783;DHT22;1399;47.072;15.452;2023-04-19T04:49:48;13.50;55.90
2783;DHT22;1399;47.072;15.452;2023-04-19T04:52:14;13.50;55.90
2783;DHT22;1399;47.072;15.452;2023-04-19T04:54:40;13.50;55.80
2783;DHT22;1399;47.072;15.452;2023-04-19T04:57:07;13.60;55.90
2783;DHT22;1399;47.072;15.452;2023-04-19T04:59:32;13.50;55.70
2783;DHT22;1399;47.072;15.452;2023-04-19T05:01:58;13.60;55.70
2783;DHT22;1399;47.072;15.452;2023-04-19T05:04:24;13.60;55.60
2783;DHT22;1399;47.072;15.452;2023-04-19T05:06:50;13.60;55.50
2783;DHT22;1399;47.072;15.452;2023-04-19T05:09:15;13.60;55.40
2783;DHT22;1399;47.072;15.452;2023-04-19T05:11:41;13.70;55.40
2783;DHT22;1399;47.072;15.452;2023-04-19T05:14:07;13.70;55.30
2783;DHT22;1399;47.072;15.452;2023-04-19T05:16:33;13.80;55.30
2783;DHT22;1399;47.072;15.452;2023-04-19T05:18:58;13.80;55.10
2783;DHT22;1399;47.072;15.452;2023-04-19T05:21:24;13.80;55.00
2783;DHT22;1399;47.072;15.452;2023-04-19T05:23:51;13.80;54.90
2783;DHT22;1399;47.072;15.452;2023-04-19T05:26:18;13.90;54.80
2783;DHT22;1399;47.072;15.452;2023-04-19T05:28:44;13.90;54.70
2783;DHT22;1399;47.072;15.452;2023-04-19T05:31:10;14.00;54.70
2783;DHT22;1399;47.072;15.452;2023-04-19T05:33:37;14.10;54.70
2783;DHT22;1399;47.072;15.452;2023-04-19T05:36:02;14.10;54.60
2783;DHT22;1399;47.072;15.452;2023-04-19T05:38:28;14.20;54.50
2783;DHT22;1399;47.072;15.452;2023-04-19T05:40:54;14.30;54.50
2783;DHT22;1399;47.072;15.452;2023-04-19T05:43:20;14.40;54.50
2783;DHT22;1399;47.072;15.452;2023-04-19T05:45:46;14.40;54.30
2783;DHT22;1399;47.072;15.452;2023-04-19T05:48:12;14.50;54.20
2783;DHT22;1399;47.072;15.452;2023-04-19T05:50:38;14.60;54.10
2783;DHT22;1399;47.072;15.452;2023-04-19T05:53:04;14.80;54.10
2783;DHT22;1399;47.072;15.452;2023-04-19T05:55:30;14.90;54.00
2783;DHT22;1399;47.072;15.452;2023-04-19T05:57:59;15.00;53.80
2783;DHT22;1399;47.072;15.452;2023-04-19T06:00:25;15.00;53.60
2783;DHT22;1399;47.072;15.452;2023-04-19T06:02:52;15.10;53.40
2783;DHT22;1399;47.072;15.452;2023-04-19T06:05:17;15.30;53.30
2783;DHT22;1399;47.072;15.452;2023-04-19T06:07:43;15.50;52.90
2783;DHT22;1399;47.072;15.452;2023-04-19T06:10:09;15.80;52.30
2783;DHT22;1399;47.072;15.452;2023-04-19T06:12:35;15.90;51.50
2783;DHT22;1399;47.072;15.452;2023-04-19T06:15:01;16.20;51.60
2783;DHT22;1399;47.072;15.452;2023-04-19T06:17:27;16.40;50.60
2783;DHT22;1399;47.072;15.452;2023-04-19T06:19:53;16.50;50.00
2783;DHT22;1399;47.072;15.452;2023-04-19T06:22:19;16.60;49.60
2783;DHT22;1399;47.072;15.452;2023-04-19T06:24:46;16.60;49.40
2783;DHT22;1399;47.072;15.452;2023-04-19T06:27:12;16.50;49.10
2783;DHT22;1399;47.072;15.452;2023-04-19T06:29:38;16.70;49.10
2783;DHT22;1399;47.072;15.452;2023-04-19T06:32:04;16.80;48.90
2783;DHT22;1399;47.072;15.452;2023-04-19T06:34:30;17.00;48.40
2783;DHT22;1399;47.072;15.452;2023-04-19T06:36:55;17.10;47.90
2783;DHT22;1399;47.072;15.452;2023-04-19T06:39:21;17.30;47.80
2783;DHT22;1399;47.072;15.452;2023-04-19T06:41:47;17.30;47.80
2783;DHT22;1399;47.072;15.452;2023-04-19T06:44:13;17.30;47.70
2783;DHT22;1399;47.072;15.452;2023-04-19T06:46:38;17.40;47.70
2783;DHT22;1399;47.072;15.452;2023-04-19T06:49:04;17.50;47.60
2783;DHT22;1399;47.072;15.452;2023-04-19T06:51:31;17.50;47.50
2783;DHT22;1399;47.072;15.452;2023-04-19T06:53:57;17.60;47.30
2783;DHT22;1399;47.072;15.452;2023-04-19T06:59:05;17.80;47.00
2783;DHT22;1399;47.072;15.452;2023-04-19T07:01:31;17.80;46.90
2783;DHT22;1399;47.072;15.452;2023-04-19T07:03:56;17.80;46.80
2783;DHT22;1399;47.072;15.452;2023-04-19T07:06:22;17.80;46.90
2783;DHT22;1399;47.072;15.452;2023-04-19T07:08:48;17.80;46.80
2783;DHT22;1399;47.072;15.452;2023-04-19T07:11:14;17.80;46.80
2783;DHT22;1399;47.072;15.452;2023-04-19T07:13:40;17.80;46.90
2783;DHT22;1399;47.072;15.452;2023-04-19T07:16:06;17.80;46.80
2783;DHT22;1399;47.072;15.452;2023-04-19T07:18:32;17.80;46.70
2783;DHT22;1399;47.072;15.452;2023-04-19T07:20:58;17.80;46.60
2783;DHT22;1399;47.072;15.452;2023-04-19T07:23:24;17.80;46.60
2783;DHT22;1399;47.072;15.452;2023-04-19T07:25:49;17.80;46.50
2783;DHT22;1399;47.072;15.452;2023-04-19T07:28:15;17.70;46.40
2783;DHT22;1399;47.072;15.452;2023-04-19T07:30:41;17.70;46.30
2783;DHT22;1399;47.072;15.452;2023-04-19T07:33:10;17.70;46.90
2783;DHT22;1399;47.072;15.452;2023-04-19T07:35:38;17.70;46.10
2783;DHT22;1399;47.072;15.452;2023-04-19T07:38:03;17.70;46.00
2783;DHT22;1399;47.072;15.452;2023-04-19T07:40:29;17.70;46.00
2783;DHT22;1399;47.072;15.452;2023-04-19T07:42:55;17.70;45.80
2783;DHT22;1399;47.072;15.452;2023-04-19T07:45:21;17.80;45.70
2783;DHT22;1399;47.072;15.452;2023-04-19T07:47:47;17.80;45.60
2783;DHT22;1399;47.072;15.452;2023-04-19T07:50:12;17.80;45.40
2783;DHT22;1399;47.072;15.452;2023-04-19T07:52:38;17.80;45.20
2783;DHT22;1399;47.072;15.452;2023-04-19T07:55:04;17.90;45.00
2783;DHT22;1399;47.072;15.452;2023-04-19T07:57:30;17.90;44.80
2783;DHT22;1399;47.072;15.452;2023-04-19T07:59:56;18.00;44.70
2783;DHT22;1399;47.072;15.452;2023-04-19T08:02:27;18.00;44.50
2783;DHT22;1399;47.072;15.452;2023-04-19T08:04:53;18.00;44.40
2783;DHT22;1399;47.072;15.452;2023-04-19T08:07:18;18.00;44.20
2783;DHT22;1399;47.072;15.452;2023-04-19T08:09:44;18.00;44.10
2783;DHT22;1399;47.072;15.452;2023-04-19T08:12:10;18.00;43.90
2783;DHT22;1399;47.072;15.452;2023-04-19T08:14:36;18.00;43.90
2783;DHT22;1399;47.072;15.452;2023-04-19T08:17:04;18.00;43.70
2783;DHT22;1399;47.072;15.452;2023-04-19T08:19:29;18.00;43.50
2783;DHT22;1399;47.072;15.452;2023-04-19T08:21:55;18.00;43.20
2783;DHT22;1399;47.072;15.452;2023-04-19T08:24:21;18.00;42.90
2783;DHT22;1399;47.072;15.452;2023-04-19T08:26:47;18.10;42.80
2783;DHT22;1399;47.072;15.452;2023-04-19T08:29:19;18.20;42.60
2783;DHT22;1399;47.072;15.452;2023-04-19T08:31:45;18.20;42.50
2783;DHT22;1399;47.072;15.452;2023-04-19T08:34:11;18.30;42.50
2783;DHT22;1399;47.072;15.452;2023-04-19T08:36:37;18.30;42.30
2783;DHT22;1399;47.072;15.452;2023-04-19T08:39:03;18.30;42.20
2783;DHT22;1399;47.072;15.452;2023-04-19T08:41:33;18.30;42.30
2783;DHT22;1399;47.072;15.452;2023-04-19T08:44:00;18.30;42.50
2783;DHT22;1399;47.072;15.452;2023-04-19T08:46:27;18.30;42.40
2783;DHT22;1399;47.072;15.452;2023-04-19T08:48:55;18.30;42.40
2783;DHT22;1399;47.072;15.452;2023-04-19T08:51:21;18.40;42.60
2783;DHT22;1399;47.072;15.452;2023-04-19T08:53:47;18.30;42.70
2783;DHT22;1399;47.072;15.452;2023-04-19T08:56:14;18.40;43.50
2783;DHT22;1399;47.072;15.452;2023-04-19T08:58:40;18.40;43.20
2783;DHT22;1399;47.072;15.452;2023-04-19T09:01:06;18.40;43.00
2783;DHT22;1399;47.072;15.452;2023-04-19T09:03:33;18.40;43.00
2783;DHT22;1399;47.072;15.452;2023-04-19T09:06:02;18.40;42.90
2783;DHT22;1399;47.072;15.452;2023-04-19T09:08:31;18.50;42.80
2783;DHT22;1399;47.072;15.452;2023-04-19T09:10:59;18.60;42.60
2783;DHT22;1399;47.072;15.452;2023-04-19T09:13:27;18.70;42.50
2783;DHT22;1399;47.072;15.452;2023-04-19T09:15:54;18.70;42.30
2783;DHT22;1399;47.072;15.452;2023-04-19T09:18:22;18.70;42.40
2783;DHT22;1399;47.072;15.452;2023-04-19T09:20:49;18.70;42.40
2783;DHT22;1399;47.072;15.452;2023-04-19T09:23:17;18.60;42.30
2783;DHT22;1399;47.072;15.452;2023-04-19T09:25:59;18.60;42.70
2783;DHT22;1399;47.072;15.452;2023-04-19T09:28:26;18.60;42.70
2783;DHT22;1399;47.072;15.452;2023-04-19T09:30:56;18.60;42.70
2783;DHT22;1399;47.072;15.452;2023-04-19T09:33:33;18.50;42.60
2783;DHT22;1399;47.072;15.452;2023-04-19T09:36:00;18.50;42.70
2783;DHT22;1399;47.072;15.452;2023-04-19T09:38:26;18.60;42.70
2783;DHT22;1399;47.072;15.452;2023-04-19T09:40:52;18.60;42.60
2783;DHT22;1399;47.072;15.452;2023-04-19T09:43:29;18.60;42.50
2783;DHT22;1399;47.072;15.452;2023-04-19T09:45:55;18.60;42.30
2783;DHT22;1399;47.072;15.452;2023-04-19T09:48:22;18.70;42.30
2783;DHT22;1399;47.072;15.452;2023-04-19T09:50:59;18.70;42.20
2783;DHT22;1399;47.072;15.452;2023-04-19T09:53:26;18.80;42.10
2783;DHT22;1399;47.072;15.452;2023-04-19T09:55:52;18.80;42.60
2783;DHT22;1399;47.072;15.452;2023-04-19T09:58:19;18.80;42.00
2783;DHT22;1399;47.072;15.452;2023-04-19T10:00:46;18.80;41.90
2783;DHT22;1399;47.072;15.452;2023-04-19T10:03:14;18.90;42.00
2783;DHT22;1399;47.072;15.452;2023-04-19T10:05:41;18.80;41.90
2783;DHT22;1399;47.072;15.452;2023-04-19T10:08:11;18.80;42.00
2783;DHT22;1399;47.072;15.452;2023-04-19T10:10:38;18.90;42.00
2783;DHT22;1399;47.072;15.452;2023-04-19T10:13:07;18.80;41.80
2783;DHT22;1399;47.072;15.452;2023-04-19T10:15:36;18.80;41.80
2783;DHT22;1399;47.072;15.452;2023-04-19T10:18:05;18.80;41.90
2783;DHT22;1399;47.072;15.452;2023-04-19T10:23:06;18.70;41.80
2783;DHT22;1399;47.072;15.452;2023-04-19T10:25:36;18.70;41.90
2783;DHT22;1399;47.072;15.452;2023-04-19T10:28:02;18.60;41.90
2783;DHT22;1399;47.072;15.452;2023-04-19T10:30:28;18.60;42.00
2783;DHT22;1399;47.072;15.452;2023-04-19T10:32:58;18.60;42.70
2783;DHT22;1399;47.072;15.452;2023-04-19T10:35:36;18.50;42.20
2783;DHT22;1399;47.072;15.452;2023-04-19T10:38:06;18.50;42.10
2783;DHT22;1399;47.072;15.452;2023-04-19T10:43:19;18.40;41.80
2783;DHT22;1399;47.072;15.452;2023-04-19T10:45:45;18.30;41.60
2783;DHT22;1399;47.072;15.452;2023-04-19T10:48:32;18.30;41.50
2783;DHT22;1399;47.072;15.452;2023-04-19T10:51:10;18.30;41.40
2783;DHT22;1399;47.072;15.452;2023-04-19T10:56:08;18.20;41.90
2783;DHT22;1399;47.072;15.452;2023-04-19T11:01:41;18.20;42.90
2783;DHT22;1399;47.072;15.452;2023-04-19T11:04:09;18.20;43.40
2783;DHT22;1399;47.072;15.452;2023-04-19T11:06:36;18.20;43.40
2783;DHT22;1399;47.072;15.452;2023-04-19T11:09:02;18.20;43.80
2783;DHT22;1399;47.072;15.452;2023-04-19T11:11:34;18.20;44.00
2783;DHT22;1399;47.072;15.452;2023-04-19T11:14:02;18.20;44.20
2783;DHT22;1399;47.072;15.452;2023-04-19T11:16:31;18.20;44.50
2783;DHT22;1399;47.072;15.452;2023-04-19T11:18:57;18.20;44.60
2783;DHT22;1399;47.072;15.452;2023-04-19T11:21:23;18.20;44.70
2783;DHT22;1399;47.072;15.452;2023-04-19T11:24:05;18.20;44.80
2783;DHT22;1399;47.072;15.452;2023-04-19T11:26:31;18.10;44.90
2783;DHT22;1399;47.072;15.452;2023-04-19T11:28:57;18.10;45.20
2783;DHT22;1399;47.072;15.452;2023-04-19T11:31:23;18.10;45.50
2783;DHT22;1399;47.072;15.452;2023-04-19T11:33:50;18.10;45.80
2783;DHT22;1399;47.072;15.452;2023-04-19T11:36:16;18.10;46.00
2783;DHT22;1399;47.072;15.452;2023-04-19T11:38:46;18.00;46.20
2783;DHT22;1399;47.072;15.452;2023-04-19T11:41:12;18.00;46.50
2783;DHT22;1399;47.072;15.452;2023-04-19T11:43:38;18.00;46.70
2783;DHT22;1399;47.072;15.452;2023-04-19T11:46:08;18.00;47.00
2783;DHT22;1399;47.072;15.452;2023-04-19T11:48:35;17.90;47.30
2783;DHT22;1399;47.072;15.452;2023-04-19T11:51:02;17.90;47.70
2783;DHT22;1399;47.072;15.452;2023-04-19T11:53:29;17.90;47.90
2783;DHT22;1399;47.072;15.452;2023-04-19T11:56:04;17.90;48.20
2783;DHT22;1399;47.072;15.452;2023-04-19T11:58:42;17.90;48.40
2783;DHT22;1399;47.072;15.452;2023-04-19T12:01:18;17.90;48.60
2783;DHT22;1399;47.072;15.452;2023-04-19T12:03:50;17.80;48.80
2783;DHT22;1399;47.072;15.452;2023-04-19T12:06:27;17.80;49.10
2783;DHT22;1399;47.072;15.452;2023-04-19T12:08:57;17.80;49.40
2783;DHT22;1399;47.072;15.452;2023-04-19T12:11:24;17.80;49.50
2783;DHT22;1399;47.072;15.452;2023-04-19T12:14:13;17.80;49.70
2783;DHT22;1399;47.072;15.452;2023-04-19T12:16:39;17.80;49.90
2783;DHT22;1399;47.072;15.452;2023-04-19T12:19:13;17.80;50.00
2783;DHT22;1399;47.072;15.452;2023-04-19T12:21:39;17.90;50.30
2783;DHT22;1399;47.072;15.452;2023-04-19T12:24:05;17.90;50.40
2783;DHT22;1399;47.072;15.452;2023-04-19T12:26:31;18.00;50.50
2783;DHT22;1399;47.072;15.452;2023-04-19T12:28:58;18.00;50.70
2783;DHT22;1399;47.072;15.452;2023-04-19T12:31:24;18.10;50.60
2783;DHT22;1399;47.072;15.452;2023-04-19T12:33:50;18.20;50.70
2783;DHT22;1399;47.072;15.452;2023-04-19T12:36:16;18.20;50.70
2783;DHT22;1399;47.072;15.452;2023-04-19T12:38:41;18.30;50.80
2783;DHT22;1399;47.072;15.452;2023-04-19T12:41:07;18.40;50.80
2783;DHT22;1399;47.072;15.452;2023-04-19T12:43:33;18.40;51.00
2783;DHT22;1399;47.072;15.452;2023-04-19T12:45:59;18.50;51.00
2783;DHT22;1399;47.072;15.452;2023-04-19T12:48:25;18.50;51.20
2783;DHT22;1399;47.072;15.452;2023-04-19T12:50:51;18.50;50.90
2783;DHT22;1399;47.072;15.452;2023-04-19T12:53:17;18.60;51.00
2783;DHT22;1399;47.072;15.452;2023-04-19T12:55:43;18.60;50.90
2783;DHT22;1399;47.072;15.452;2023-04-19T12:58:14;18.60;51.00
2783;DHT22;1399;47.072;15.452;2023-04-19T13:00:40;18.70;51.60
2783;DHT22;1399;47.072;15.452;2023-04-19T13:03:06;18.70;50.80
2783;DHT22;1399;47.072;15.452;2023-04-19T13:05:31;18.70;50.70
2783;DHT22;1399;47.072;15.452;2023-04-19T13:07:57;18.80;50.60
2783;DHT22;1399;47.072;15.452;2023-04-19T13:10:23;18.80;50.60
2783;DHT22;1399;47.072;15.452;2023-04-19T13:12:48;18.90;50.40
2783;DHT22;1399;47.072;15.452;2023-04-19T13:15:15;18.90;50.30
2783;DHT22;1399;47.072;15.452;2023-04-19T13:17:40;19.00;50.10
2783;DHT22;1399;47.072;15.452;2023-04-19T13:20:06;19.00;50.00
2783;DHT22;1399;47.072;15.452;2023-04-19T13:22:32;19.00;49.80
2783;DHT22;1399;47.072;15.452;2023-04-19T13:24:58;19.00;50.10
2783;DHT22;1399;47.072;15.452;2023-04-19T13:27:24;19.00;50.00
2783;DHT22;1399;47.072;15.452;2023-04-19T13:29:50;19.00;50.20
2783;DHT22;1399;47.072;15.452;2023-04-19T13:32:15;19.00;50.30
2783;DHT22;1399;47.072;15.452;2023-04-19T13:34:41;19.00;50.30
2783;DHT22;1399;47.072;15.452;2023-04-19T13:37:07;18.90;50.20
2783;DHT22;1399;47.072;15.452;2023-04-19T13:39:33;18.90;50.20
2783;DHT22;1399;47.072;15.452;2023-04-19T13:41:59;18.90;50.30
2783;DHT22;1399;47.072;15.452;2023-04-19T13:44:27;18.90;50.40
2783;DHT22;1399;47.072;15.452;2023-04-19T13:46:52;18.90;50.50
2783;DHT22;1399;47.072;15.452;2023-04-19T13:49:18;18.80;50.60
2783;DHT22;1399;47.072;15.452;2023-04-19T13:51:44;18.80;50.60
2783;DHT22;1399;47.072;15.452;2023-04-19T13:54:10;18.80;50.50
2783;DHT22;1399;47.072;15.452;2023-04-19T13:56:35;18.80;50.40
2783;DHT22;1399;47.072;15.452;2023-04-19T13:59:01;18.80;50.50
2783;DHT22;1399;47.072;15.452;2023-04-19T14:01:27;18.80;50.50
2783;DHT22;1399;47.072;15.452;2023-04-19T14:03:53;18.70;50.30
2783;DHT22;1399;47.072;15.452;2023-04-19T14:06:18;18.70;50.40
2783;DHT22;1399;47.072;15.452;2023-04-19T14:08:44;18.70;50.40
2783;DHT22;1399;47.072;15.452;2023-04-19T14:11:10;18.70;50.40
2783;DHT22;1399;47.072;15.452;2023-04-19T14:13:36;18.70;50.40
2783;DHT22;1399;47.072;15.452;2023-04-19T14:16:02;18.70;50.40
2783;DHT22;1399;47.072;15.452;2023-04-19T14:18:28;18.60;50.40
2783;DHT22;1399;47.072;15.452;2023-04-19T14:20:54;18.60;50.40
2783;DHT22;1399;47.072;15.452;2023-04-19T14:23:20;18.60;50.50
2783;DHT22;1399;47.072;15.452;2023-04-19T14:25:46;18.60;50.50
2783;DHT22;1399;47.072;15.452;2023-04-19T14:28:11;18.60;50.50
2783;DHT22;1399;47.072;15.452;2023-04-19T14:30:38;18.60;50.50
2783;DHT22;1399;47.072;15.452;2023-04-19T14:33:04;18.60;50.50
2783;DHT22;1399;47.072;15.452;2023-04-19T14:35:30;18.70;50.50
2783;DHT22;1399;47.072;15.452;2023-04-19T14:37:56;18.80;50.70
2783;DHT22;1399;47.072;15.452;2023-04-19T14:40:22;18.80;50.70
2783;DHT22;1399;47.072;15.452;2023-04-19T14:42:48;18.80;50.40
2783;DHT22;1399;47.072;15.452;2023-04-19T14:45:14;18.80;50.40
2783;DHT22;1399;47.072;15.452;2023-04-19T14:47:39;18.80;50.20
2783;DHT22;1399;47.072;15.452;2023-04-19T14:50:05;18.70;50.20
2783;DHT22;1399;47.072;15.452;2023-04-19T14:52:31;18.70;50.30
2783;DHT22;1399;47.072;15.452;2023-04-19T14:54:57;18.60;50.40
2783;DHT22;1399;47.072;15.452;2023-04-19T14:57:25;18.50;50.50
2783;DHT22;1399;47.072;15.452;2023-04-19T14:59:55;18.40;50.60
2783;DHT22;1399;47.072;15.452;2023-04-19T15:02:25;18.30;50.70
2783;DHT22;1399;47.072;15.452;2023-04-19T15:04:51;18.30;50.90
2783;DHT22;1399;47.072;15.452;2023-04-19T15:07:17;18.20;50.90
2783;DHT22;1399;47.072;15.452;2023-04-19T15:09:43;18.10;50.80
2783;DHT22;1399;47.072;15.452;2023-04-19T15:12:08;18.00;50.70
2783;DHT22;1399;47.072;15.452;2023-04-19T15:14:34;18.00;50.70
2783;DHT22;1399;47.072;15.452;2023-04-19T15:17:00;17.90;50.80
2783;DHT22;1399;47.072;15.452;2023-04-19T15:19:26;17.80;50.90
2783;DHT22;1399;47.072;15.452;2023-04-19T15:21:54;17.70;51.30
2783;DHT22;1399;47.072;15.452;2023-04-19T15:24:19;17.60;51.60
2783;DHT22;1399;47.072;15.452;2023-04-19T15:26:45;17.50;52.00
2783;DHT22;1399;47.072;15.452;2023-04-19T15:29:11;17.40;52.40
2783;DHT22;1399;47.072;15.452;2023-04-19T15:31:37;17.30;52.70
2783;DHT22;1399;47.072;15.452;2023-04-19T15:34:03;17.20;53.00
2783;DHT22;1399;47.072;15.452;2023-04-19T15:36:29;17.20;53.60
2783;DHT22;1399;47.072;15.452;2023-04-19T15:38:55;17.10;53.90
2783;DHT22;1399;47.072;15.452;2023-04-19T15:41:21;17.00;54.30
2783;DHT22;1399;47.072;15.452;2023-04-19T15:43:47;17.00;54.50
2783;DHT22;1399;47.072;15.452;2023-04-19T15:46:14;16.90;54.80
2783;DHT22;1399;47.072;15.452;2023-04-19T15:48:41;16.90;55.10
2783;DHT22;1399;47.072;15.452;2023-04-19T15:51:09;16.80;55.40
2783;DHT22;1399;47.072;15.452;2023-04-19T15:53:34;16.80;55.70
2783;DHT22;1399;47.072;15.452;2023-04-19T15:56:01;16.70;55.80